Time;durP1;ratioP1;P1;durP2;ratioP2;P2;SDS_P1;SDS_P2;PMS_P1;PMS_P2;Temp;Humidity;BMP_temperature;BMP_pressure;BME280_temperature;BME280_humidity;BME280_pressure;Samples;Min_cycle;Max_cycle;Signal;HPM_P1;HPM_P2
2023/01/09 00:00:46;;;;;;;9.93;2.47;;;;;;;4.52;92.21;97998.38;5045254;28;20129;-43
2023/01/09 00:03:13;;;;;;;11.52;2.08;;;;;;;4.52;92.30;97998.38;5046584;28;20083;-44
2023/01/09 00:05:40;;;;;;;10.43;1.77;;;;;;;4.53;92.36;97999.91;5047363;28;20049;-41
2023/01/09 00:08:07;;;;;;;16.02;2.55;;;;;;;4.53;92.10;97997.19;5048027;28;20762;-42
2023/01/09 00:10:34;;;;;;;9.85;2.08;;;;;;;4.53;91.89;98013.63;5047472;28;20465;-41
2023/01/09 00:13:00;;;;;;;9.48;1.92;;;;;;;4.53;91.95;98006.19;5047196;28;20107;-42
2023/01/09 00:15:27;;;;;;;9.93;2.05;;;;;;;4.52;91.79;98021.06;5042355;28;20449;-44
2023/01/09 00:17:54;;;;;;;9.88;2.03;;;;;;;4.50;92.01;98012.41;5040701;28;20780;-42
2023/01/09 00:20:21;;;;;;;8.95;1.75;;;;;;;4.52;91.83;98031.22;5045110;28;20049;-41
2023/01/09 00:22:47;;;;;;;5.97;1.60;;;;;;;4.51;92.19;98024.97;5047523;28;20041;-44
2023/01/09 00:25:14;;;;;;;7.28;2.17;;;;;;;4.52;91.98;98028.50;5044631;28;20147;-42
2023/01/09 00:27:41;;;;;;;11.65;2.38;;;;;;;4.50;91.68;98044.53;5044403;28;20108;-41
2023/01/09 00:30:09;;;;;;;15.88;1.95;;;;;;;4.50;91.80;98058.22;5033951;28;20431;-45
2023/01/09 00:32:36;;;;;;;8.23;1.75;;;;;;;4.49;91.71;98064.84;5054293;28;20073;-43
2023/01/09 00:35:03;;;;;;;12.18;1.90;;;;;;;4.49;91.69;98062.09;5038299;28;20044;-43
2023/01/09 00:37:29;;;;;;;11.05;1.90;;;;;;;4.50;91.63;98060.97;5029845;28;20037;-45
2023/01/09 00:39:56;;;;;;;12.75;2.17;;;;;;;4.50;91.66;98063.69;5045943;28;20053;-43
2023/01/09 00:42:29;;;;;;;12.15;1.40;;;;;;;4.50;91.63;98069.19;5045138;28;20064;-42
2023/01/09 00:45:02;;;;;;;7.70;1.52;;;;;;;4.54;91.92;98079.03;5044783;28;20063;-42
2023/01/09 00:47:37;;;;;;;7.57;2.13;;;;;;;4.57;91.54;98072.81;5040315;28;20133;-43
2023/01/09 00:50:09;;;;;;;13.13;2.85;;;;;;;4.61;91.63;98083.78;5045049;28;20055;-42
2023/01/09 00:52:37;;;;;;;;;;;;;;;4.63;91.95;98087.75;5046772;28;20060;-43
2023/01/09 00:55:04;;;;;;;7.43;1.67;;;;;;;4.66;91.54;98086.25;5046056;28;19967;-44
2023/01/09 00:57:31;;;;;;;8.13;1.20;;;;;;;4.71;91.54;98096.88;5045770;28;20087;-46
2023/01/09 00:59:58;;;;;;;8.23;1.50;;;;;;;4.75;91.80;98095.75;5047184;28;20322;-50
2023/01/09 01:02:25;;;;;;;4.88;1.25;;;;;;;4.80;91.66;98105.59;5046413;28;20108;-44
2023/01/09 01:07:38;;;;;;;10.68;1.35;;;;;;;4.85;91.29;98105.28;5046425;28;21436;-42
2023/01/09 01:10:15;;;;;;;8.98;1.45;;;;;;;4.88;91.44;98093.56;5045427;28;20048;-43
2023/01/09 01:12:42;;;;;;;9.93;1.35;;;;;;;4.91;91.60;98109.28;5046008;28;20037;-46
2023/01/09 01:15:10;;;;;;;5.60;1.58;;;;;;;4.93;91.20;98101.47;5047481;28;20045;-42
2023/01/09 01:17:39;;;;;;;5.40;1.08;;;;;;;4.96;91.45;98106.19;5037333;28;20036;-42
2023/01/09 01:20:10;;;;;;;5.50;1.50;;;;;;;4.99;91.12;98110.16;5046388;28;20053;-42
2023/01/09 01:22:36;;;;;;;5.35;0.70;;;;;;;5.01;91.38;98119.59;5046440;28;20051;-48
2023/01/09 01:25:04;;;;;;;5.32;1.10;;;;;;;5.02;91.56;98104.72;5046938;28;20045;-41
2023/01/09 01:27:31;;;;;;;2.50;0.70;;;;;;;5.05;91.21;98114.94;5033411;28;20155;-48
2023/01/09 01:29:58;;;;;;;7.32;1.85;;;;;;;5.05;91.09;98111.41;5046588;28;20085;-42
2023/01/09 01:32:25;;;;;;;7.07;1.23;;;;;;;5.06;91.36;98132.97;5046912;28;20522;-46
2023/01/09 01:34:51;;;;;;;4.60;1.35;;;;;;;5.08;91.22;98130.66;5044070;28;20037;-46
2023/01/09 01:37:20;;;;;;;2.70;0.80;;;;;;;5.08;91.14;98119.69;5046278;28;20060;-42
2023/01/09 01:39:47;;;;;;;7.65;1.50;;;;;;;5.10;91.44;98127.53;5044777;28;20037;-44
2023/01/09 01:42:14;;;;;;;3.97;0.95;;;;;;;5.10;91.58;98144.78;5043724;28;20135;-40
2023/01/09 01:45:02;;;;;;;6.68;0.75;;;;;;;5.11;91.79;98137.34;5044360;28;20051;-41
2023/01/09 01:47:52;;;;;;;7.97;1.05;;;;;;;5.09;91.69;98151.41;5036983;28;20046;-47
2023/01/09 01:50:34;;;;;;;2.25;0.70;;;;;;;5.09;91.84;98148.69;5039030;28;20103;-42
2023/01/09 01:53:25;;;;;;;1.48;1.00;;;;;;;5.08;91.91;98163.56;5036590;28;20156;-42
2023/01/09 01:55:58;;;;;;;4.15;1.23;;;;;;;5.08;91.90;98165.50;5039700;28;20061;-40
2023/01/09 01:58:26;;;;;;;4.88;0.68;;;;;;;5.04;92.26;98159.97;5029052;28;20050;-42
2023/01/09 02:00:54;;;;;;;2.80;0.80;;;;;;;5.03;92.12;98163.88;5035347;28;20052;-41
2023/01/09 02:03:26;;;;;;;5.25;1.10;;;;;;;5.02;92.61;98180.69;5046876;28;20437;-45
2023/01/09 02:05:53;;;;;;;6.25;0.90;;;;;;;5.01;92.45;98174.41;5050498;28;20120;-41
2023/01/09 02:08:20;;;;;;;2.67;1.02;;;;;;;5.01;92.97;98182.66;5049991;28;20040;-44
2023/01/09 02:10:48;;;;;;;6.57;1.20;;;;;;;5.00;92.91;98183.81;5050169;28;20057;-41
2023/01/09 02:13:15;;;;;;;6.28;0.75;;;;;;;4.99;93.46;98187.72;5049987;28;20473;-42
2023/01/09 02:15:55;;;;;;;3.88;0.80;;;;;;;4.99;93.19;98198.69;5049672;28;20059;-39
2023/01/09 02:18:45;;;;;;;4.40;1.30;;;;;;;4.97;93.75;98201.00;5041464;28;20487;-42
2023/01/09 02:21:22;;;;;;;2.20;0.80;;;;;;;4.98;93.68;98213.53;5037928;28;20072;-41
2023/01/09 02:24:07;;;;;;;4.93;1.00;;;;;;;5.00;93.86;98229.66;5061311;28;20088;-42
2023/01/09 02:26:56;;;;;;;3.88;0.98;;;;;;;5.02;93.77;98233.59;5049685;28;20118;-43
2023/01/09 02:29:53;;;;;;;4.72;1.42;;;;;;;5.03;94.25;98237.91;5049800;28;20474;-41
2023/01/09 02:32:52;;;;;;;7.10;1.13;;;;;;;5.04;94.29;98253.19;5049380;28;20044;-42
2023/01/09 02:35:27;;;;;;;2.88;0.95;;;;;;;5.05;94.40;98260.28;5048727;28;20045;-42
2023/01/09 02:38:13;;;;;;;4.72;0.98;;;;;;;5.08;94.54;98267.78;5040767;28;20059;-46
2023/01/09 02:40:53;;;;;;;4.35;0.77;;;;;;;5.11;94.92;98274.47;5035575;28;20415;-40
2023/01/09 02:43:20;;;;;;;1.17;0.50;;;;;;;5.11;94.70;98277.22;5047734;28;20088;-45
2023/01/09 02:45:47;;;;;;;2.88;1.48;;;;;;;5.09;94.95;98285.00;5044846;28;20483;-40
2023/01/09 02:48:14;;;;;;;7.95;1.00;;;;;;;5.08;94.71;98297.94;5048299;28;20061;-42
2023/01/09 02:50:51;;;;;;;8.80;1.08;;;;;;;5.05;94.92;98317.88;5038480;28;20069;-42
2023/01/09 02:53:33;;;;;;;2.55;0.63;;;;;;;5.06;95.09;98324.13;5038102;28;20581;-41
2023/01/09 02:56:02;;;;;;;6.80;0.90;;;;;;;5.09;95.37;98337.09;5041441;28;20048;-42
2023/01/09 02:58:53;;;;;;;2.25;0.68;;;;;;;5.15;95.11;98343.88;5047997;28;20155;-43
2023/01/09 03:01:31;;;;;;;1.20;0.30;;;;;;;5.19;95.30;98350.22;5021497;22;20400;-41
2023/01/09 03:04:11;;;;;;;3.70;0.70;;;;;;;5.22;95.39;98361.22;5008706;28;20045;-41
2023/01/09 03:06:48;;;;;;;2.00;0.80;;;;;;;5.24;95.27;98369.88;4999353;28;20085;-43
2023/01/09 03:09:21;;;;;;;4.15;0.70;;;;;;;5.25;95.40;98371.47;5012823;28;22276;-41
2023/01/09 03:12:13;;;;;;;2.38;0.68;;;;;;;5.25;95.42;98387.94;5009218;28;20426;-41
2023/01/09 03:14:46;;;;;;;5.97;0.85;;;;;;;5.25;95.56;98422.78;5008868;28;20561;-42
2023/01/09 03:17:18;;;;;;;3.42;0.80;;;;;;;5.25;95.85;98420.84;5007480;28;20046;-42
2023/01/09 03:19:45;;;;;;;4.47;1.17;;;;;;;5.24;96.22;98430.22;5009122;28;20483;-41
2023/01/09 03:22:12;;;;;;;2.45;0.52;;;;;;;5.25;95.97;98434.56;5008905;28;20175;-42
2023/01/09 03:24:39;;;;;;;2.97;0.68;;;;;;;5.25;96.25;98444.72;5009031;28;20041;-41
2023/01/09 03:27:07;;;;;;;4.13;0.35;;;;;;;5.25;96.48;98444.72;5007598;28;20486;-41
2023/01/09 03:29:34;;;;;;;0.82;0.28;;;;;;;5.23;96.40;98460.78;5008859;28;20104;-42
2023/01/09 03:32:01;;;;;;;4.03;0.40;;;;;;;5.22;96.65;98464.66;5004868;28;20048;-44
2023/01/09 03:34:28;;;;;;;0.47;0.30;;;;;;;5.21;96.67;98469.38;5008051;28;20160;-42
2023/01/09 03:36:54;;;;;;;4.82;0.30;;;;;;;5.20;96.63;98473.25;5007884;28;20133;-42
2023/01/09 03:39:21;;;;;;;0.90;0.35;;;;;;;5.20;96.60;98475.22;5005190;28;20084;-42
2023/01/09 03:41:48;;;;;;;2.00;0.75;;;;;;;5.19;96.41;98479.13;5008324;28;20050;-45
2023/01/09 03:44:15;;;;;;;3.10;0.17;;;;;;;5.18;96.66;98508.50;5007716;28;20046;-42
2023/01/09 03:46:41;;;;;;;1.95;0.40;;;;;;;5.16;96.69;98510.03;5006638;28;20042;-42
2023/01/09 03:49:08;;;;;;;1.25;0.32;;;;;;;5.13;96.98;98516.22;5006082;28;20045;-41
2023/01/09 03:51:35;;;;;;;0.85;0.20;;;;;;;5.09;96.59;98521.63;5008265;28;20065;-41
2023/01/09 03:54:02;;;;;;;1.63;0.70;;;;;;;5.02;96.58;98516.03;5007675;28;20050;-41
2023/01/09 03:56:28;;;;;;;2.33;0.30;;;;;;;4.98;96.33;98531.59;5007115;28;20046;-41
2023/01/09 03:58:55;;;;;;;3.72;0.20;;;;;;;4.90;96.63;98535.34;5004535;28;20046;-42
2023/01/09 04:01:22;;;;;;;1.02;0.08;;;;;;;4.81;96.49;98548.50;5005987;28;20456;-42
2023/01/09 04:03:49;;;;;;;0.95;0.20;;;;;;;4.75;96.64;98556.22;5006988;28;20054;-48
2023/01/09 04:06:16;;;;;;;1.02;0.20;;;;;;;4.71;96.56;98560.03;5005366;28;20088;-48
2023/01/09 04:08:42;;;;;;;8.02;0.57;;;;;;;4.69;96.66;98573.28;5007592;28;20464;-43
2023/01/09 04:11:09;;;;;;;3.60;0.25;;;;;;;4.65;96.40;98578.72;5007509;28;20160;-41
2023/01/09 04:13:36;;;;;;;1.52;0.60;;;;;;;4.62;96.34;98584.09;5007061;28;20054;-41
2023/01/09 04:16:03;;;;;;;4.30;0.90;;;;;;;4.61;96.46;98598.94;5006573;28;20415;-41
2023/01/09 04:18:30;;;;;;;2.30;0.20;;;;;;;4.62;96.56;98600.56;5005847;28;20042;-44
2023/01/09 04:20:57;;;;;;;1.38;0.30;;;;;;;4.63;96.40;98596.66;5007382;28;20044;-41
2023/01/09 04:23:23;;;;;;;3.65;0.45;;;;;;;4.62;96.57;98595.06;5007515;28;20038;-41
2023/01/09 04:25:50;;;;;;;1.42;0.30;;;;;;;4.65;96.76;98613.53;4993138;28;20058;-41
2023/01/09 04:28:17;;;;;;;0.60;0.25;;;;;;;4.67;96.67;98613.97;5005665;28;20220;-42
2023/01/09 04:30:44;;;;;;;1.35;0.35;;;;;;;4.68;96.80;98612.84;5002944;28;20037;-41
2023/01/09 04:33:11;;;;;;;4.80;0.20;;;;;;;4.68;96.85;98619.13;5000549;28;20427;-41
2023/01/09 04:35:37;;;;;;;3.95;0.25;;;;;;;4.69;96.69;98619.88;5006995;28;20050;-43
2023/01/09 04:38:04;;;;;;;1.40;0.20;;;;;;;4.70;96.97;98616.00;5005198;28;20400;-42
2023/01/09 04:40:31;;;;;;;1.85;0.30;;;;;;;4.67;96.48;98635.91;5005732;28;20057;-43
2023/01/09 04:42:58;;;;;;;2.05;0.47;;;;;;;4.63;96.91;98640.53;5006662;28;20058;-41
2023/01/09 04:45:24;;;;;;;1.88;0.20;;;;;;;4.59;96.88;98643.16;5005507;28;20074;-45
2023/01/09 04:47:51;;;;;;;3.70;0.32;;;;;;;4.60;97.09;98652.19;5005897;28;20159;-41
2023/01/09 04:50:18;;;;;;;1.98;0.88;;;;;;;4.63;96.70;98651.47;5005554;28;20053;-42
2023/01/09 04:52:44;;;;;;;1.80;0.22;;;;;;;4.67;97.23;98658.63;5003795;28;20137;-43
2023/01/09 04:55:11;;;;;;;1.70;0.50;;;;;;;4.69;97.11;98667.28;5005671;28;20068;-42
2023/01/09 04:57:38;;;;;;;2.53;0.38;;;;;;;4.72;97.03;98669.31;5000275;28;20049;-45
2023/01/09 05:00:10;;;;;;;6.38;0.70;;;;;;;4.72;97.12;98674.00;4997687;28;20606;-41
2023/01/09 05:02:38;;;;;;;8.85;1.35;;;;;;;4.71;96.73;98675.16;5000533;28;20053;-42
2023/01/09 05:05:06;;;;;;;4.38;0.85;;;;;;;4.66;97.09;98667.22;5006736;28;20157;-47
2023/01/09 05:07:37;;;;;;;4.72;0.60;;;;;;;4.64;97.16;98680.47;4996530;28;20042;-42
2023/01/09 05:10:04;;;;;;;1.85;0.98;;;;;;;4.61;96.93;98694.88;5007330;28;20108;-42
2023/01/09 05:12:33;;;;;;;1.75;0.73;;;;;;;4.58;97.03;98693.63;5005857;28;20067;-42
2023/01/09 05:15:01;;;;;;;5.57;0.70;;;;;;;4.56;96.98;98689.66;5007561;28;20049;-43
2023/01/09 05:17:28;;;;;;;6.80;2.97;;;;;;;4.55;97.17;98701.78;5008676;28;20061;-47
2023/01/09 05:19:55;;;;;;;3.53;0.47;;;;;;;4.51;97.21;98709.13;5008616;28;20046;-42
2023/01/09 05:22:22;;;;;;;3.78;0.60;;;;;;;4.47;96.84;98700.03;5008391;28;20437;-46
2023/01/09 05:24:49;;;;;;;2.72;0.63;;;;;;;4.43;97.19;98701.88;5008628;28;20492;-42
2023/01/09 05:27:16;;;;;;;6.35;0.60;;;;;;;4.40;97.24;98716.28;5008927;28;20046;-43
2023/01/09 05:29:43;;;;;;;4.78;0.60;;;;;;;4.35;97.00;98713.78;5007914;28;20133;-47
2023/01/09 05:32:09;;;;;;;3.50;0.73;;;;;;;4.32;97.26;98712.56;5007589;28;20136;-43
2023/01/09 05:34:36;;;;;;;2.65;0.45;;;;;;;4.30;97.06;98715.66;5008589;28;20443;-41
2023/01/09 05:37:03;;;;;;;4.43;0.60;;;;;;;4.26;97.28;98709.28;5009979;28;20463;-41
2023/01/09 05:39:30;;;;;;;4.35;1.20;;;;;;;4.25;97.17;98724.16;5009381;28;20164;-43
2023/01/09 05:41:56;;;;;;;3.10;0.60;;;;;;;4.22;97.41;98724.84;5011825;28;20518;-48
2023/01/09 05:44:23;;;;;;;4.47;0.60;;;;;;;4.22;97.47;98738.53;5011543;28;20042;-43
2023/01/09 05:46:50;;;;;;;2.28;0.50;;;;;;;4.18;97.16;98723.19;5011901;28;20353;-41
2023/01/09 05:49:17;;;;;;;5.03;0.80;;;;;;;4.15;97.28;98734.81;5010747;28;20048;-41
2023/01/09 05:51:44;;;;;;;7.15;1.80;;;;;;;4.13;97.39;98740.63;5009356;28;20046;-48
2023/01/09 05:54:11;;;;;;;7.38;2.15;;;;;;;4.11;97.54;98755.84;5025235;28;20399;-41
2023/01/09 05:56:37;;;;;;;4.25;1.42;;;;;;;4.09;97.43;98764.41;5016542;28;20451;-41
2023/01/09 05:59:04;;;;;;;7.20;1.30;;;;;;;4.09;97.09;98767.16;5012513;28;20077;-46
2023/01/09 06:01:31;;;;;;;3.28;0.70;;;;;;;4.07;96.99;98776.84;5010837;28;20081;-43
2023/01/09 06:03:58;;;;;;;5.85;1.50;;;;;;;4.04;97.18;98778.34;5010472;28;20195;-41
2023/01/09 06:06:25;;;;;;;1.58;0.70;;;;;;;4.03;97.17;98776.75;5010325;28;20391;-42
2023/01/09 06:08:52;;;;;;;5.70;1.08;;;;;;;4.02;97.40;98780.66;5012137;28;20077;-42
2023/01/09 06:11:18;;;;;;;4.90;1.00;;;;;;;4.01;96.94;98790.00;5025111;28;20419;-42
2023/01/09 06:13:45;;;;;;;6.57;0.90;;;;;;;4.01;97.21;98789.19;5010657;28;20069;-41
2023/01/09 06:16:12;;;;;;;6.35;1.40;;;;;;;3.99;97.40;98794.25;5009866;28;20403;-41
2023/01/09 06:18:39;;;;;;;7.28;1.20;;;;;;;3.98;97.28;98806.31;5012207;28;20054;-41
2023/01/09 06:21:08;;;;;;;8.88;1.25;;;;;;;3.96;97.42;98814.09;5007207;28;20046;-42
2023/01/09 06:23:34;;;;;;;8.10;2.55;;;;;;;3.95;97.23;98828.91;5008984;28;20444;-44
2023/01/09 06:26:01;;;;;;;6.10;1.23;;;;;;;3.94;96.98;98830.06;5009042;28;20045;-44
2023/01/09 06:28:28;;;;;;;6.03;1.13;;;;;;;3.93;97.21;98826.53;5009762;28;20052;-41
2023/01/09 06:30:54;;;;;;;11.70;1.70;;;;;;;3.92;97.27;98843.31;5009156;28;20053;-41
2023/01/09 06:33:21;;;;;;;10.18;1.23;;;;;;;3.91;97.04;98856.22;5010937;28;20466;-41
2023/01/09 06:35:48;;;;;;;15.45;2.13;;;;;;;3.91;97.26;98867.16;5009428;28;20148;-41
2023/01/09 06:38:15;;;;;;;6.03;1.45;;;;;;;3.91;97.09;98863.63;5010914;28;20054;-41
2023/01/09 06:40:42;;;;;;;6.85;1.65;;;;;;;3.91;96.85;98871.81;5012582;28;20046;-41
2023/01/09 06:43:08;;;;;;;7.95;1.20;;;;;;;3.91;97.18;98872.63;5015118;28;20056;-41
2023/01/09 06:45:35;;;;;;;5.45;1.20;;;;;;;3.89;96.70;98877.63;5020410;28;20141;-42
2023/01/09 06:48:02;;;;;;;9.60;1.63;;;;;;;3.87;97.06;98877.19;5011797;28;20045;-46
2023/01/09 06:50:29;;;;;;;7.35;1.65;;;;;;;3.87;97.05;98885.41;5008739;28;20136;-42
2023/01/09 06:52:56;;;;;;;9.30;1.77;;;;;;;3.84;97.16;98886.09;5009231;28;20444;-41
2023/01/09 06:55:25;;;;;;;10.30;1.30;;;;;;;3.83;96.94;98889.19;5009040;28;20041;-46
2023/01/09 06:57:52;;;;;;;9.73;1.40;;;;;;;3.83;96.82;98902.88;5009208;28;20054;-41
2023/01/09 07:00:19;;;;;;;4.55;1.33;;;;;;;3.80;96.84;98903.56;5010310;28;20141;-41
2023/01/09 07:02:46;;;;;;;9.00;1.55;;;;;;;3.79;96.91;98915.63;5009716;28;20053;-42
2023/01/09 07:05:13;;;;;;;14.43;2.03;;;;;;;3.78;96.60;98923.06;5008444;28;20048;-41
2023/01/09 07:07:40;;;;;;;6.00;1.17;;;;;;;3.78;96.83;98928.53;5009275;28;20081;-41
2023/01/09 07:10:09;;;;;;;9.80;1.70;;;;;;;3.77;96.70;98937.09;5009626;28;20794;-41
2023/01/09 07:12:36;;;;;;;13.60;2.45;;;;;;;3.75;96.98;98945.66;5009125;28;20487;-42
2023/01/09 07:15:03;;;;;;;7.13;1.55;;;;;;;3.75;96.75;98940.19;5009588;28;20504;-41
2023/01/09 07:17:31;;;;;;;9.38;2.15;;;;;;;3.75;96.81;98948.38;5009340;28;20041;-41
2023/01/09 07:19:59;;;;;;;14.82;1.95;;;;;;;3.75;96.59;98953.88;5009153;28;20057;-42
2023/01/09 07:22:26;;;;;;;5.03;1.40;;;;;;;3.73;96.76;98958.88;5009651;28;20050;-41
2023/01/09 07:24:53;;;;;;;8.00;2.17;;;;;;;3.72;96.41;98960.03;5008930;28;20121;-41
2023/01/09 07:27:21;;;;;;;6.38;1.98;;;;;;;3.71;96.68;98961.16;5005554;28;20099;-41
2023/01/09 07:29:48;;;;;;;11.07;2.00;;;;;;;3.71;96.49;98966.63;5005777;28;20046;-41
2023/01/09 07:32:16;;;;;;;24.90;3.78;;;;;;;3.68;96.11;98965.38;5004371;28;20061;-42
2023/01/09 07:34:43;;;;;;;9.30;1.50;;;;;;;3.69;96.01;98975.19;5006026;28;20042;-47
2023/01/09 07:37:09;;;;;;;12.85;1.77;;;;;;;3.67;96.05;98982.16;5007326;28;20050;-41
2023/01/09 07:39:36;;;;;;;16.80;2.03;;;;;;;3.66;96.16;98980.53;5006432;28;20132;-41
2023/01/09 07:42:03;;;;;;;15.15;1.80;;;;;;;3.65;96.35;98995.38;5004728;28;20033;-41
2023/01/09 07:44:30;;;;;;;12.75;3.50;;;;;;;3.66;96.05;98996.97;5011883;28;20517;-41
2023/01/09 07:46:56;;;;;;;7.18;1.90;;;;;;;3.66;96.16;99005.16;5008296;28;20060;-42
2023/01/09 07:49:23;;;;;;;4.10;1.75;;;;;;;3.65;95.71;99011.78;5019298;28;20046;-41
2023/01/09 07:51:52;;;;;;;18.83;4.07;;;;;;;3.64;96.14;99021.13;4995980;28;20593;-41
2023/01/09 07:54:19;;;;;;;8.15;1.80;;;;;;;3.63;95.64;99025.00;5008194;28;20566;-41
2023/01/09 07:56:46;;;;;;;15.68;2.17;;;;;;;3.62;95.53;99032.44;5008188;28;20061;-45
2023/01/09 07:59:12;;;;;;;8.02;1.70;;;;;;;3.63;95.98;99041.41;5008137;28;20141;-42
2023/01/09 08:01:39;;;;;;;11.90;2.00;;;;;;;3.61;95.79;99043.69;5012585;28;20050;-46
2023/01/09 08:04:06;;;;;;;12.57;1.83;;;;;;;3.60;95.43;99047.59;5008076;28;20042;-43
2023/01/09 08:06:33;;;;;;;12.90;2.83;;;;;;;3.59;95.64;99045.97;5008265;28;20136;-42
2023/01/09 08:09:00;;;;;;;17.02;2.88;;;;;;;3.59;95.54;99067.88;5007835;28;20477;-42
2023/01/09 08:11:27;;;;;;;10.43;1.80;;;;;;;3.57;95.67;99078.38;5008022;28;20471;-42
2023/01/09 08:13:54;;;;;;;7.63;1.52;;;;;;;3.57;95.50;99075.63;5008130;28;20050;-42
2023/01/09 08:16:20;;;;;;;13.38;2.00;;;;;;;3.57;95.44;99087.34;5003676;28;20149;-44
2023/01/09 08:18:47;;;;;;;13.10;2.55;;;;;;;3.57;95.12;99097.53;5003232;28;20085;-43
2023/01/09 08:21:14;;;;;;;13.13;3.33;;;;;;;3.58;95.31;99107.31;5006832;28;20500;-43
2023/01/09 08:23:41;;;;;;;11.18;2.03;;;;;;;3.56;95.21;99101.38;5006200;28;20056;-43
2023/01/09 08:26:08;;;;;;;13.43;1.88;;;;;;;3.55;94.95;99105.25;5005929;28;20129;-42
2023/01/09 08:28:35;;;;;;;12.32;2.22;;;;;;;3.55;94.96;99116.19;4999494;28;20049;-42
2023/01/09 08:31:01;;;;;;;5.28;2.85;;;;;;;3.54;95.20;99109.13;5007080;28;20042;-44
2023/01/09 08:33:28;;;;;;;9.23;3.15;;;;;;;3.54;94.93;99120.88;5009684;28;20049;-45
2023/01/09 08:35:55;;;;;;;10.02;3.30;;;;;;;3.54;95.19;99125.56;5008251;28;20054;-44
2023/01/09 08:38:22;;;;;;;8.00;2.05;;;;;;;3.55;94.89;99132.59;5007449;28;20156;-41
2023/01/09 08:40:49;;;;;;;16.60;4.13;;;;;;;3.55;94.75;99143.56;5008576;28;20046;-40
2023/01/09 08:48:28;;;;;;;8.13;3.03;;;;;;;3.52;94.54;99163.41;5005429;28;20045;-41
2023/01/09 08:50:55;;;;;;;10.70;1.90;;;;;;;3.51;94.51;99167.25;5002894;28;20109;-41
2023/01/09 08:53:21;;;;;;;14.40;3.42;;;;;;;3.50;94.42;99162.91;5007186;28;20491;-42
2023/01/09 08:55:48;;;;;;;9.07;2.85;;;;;;;3.52;94.42;99182.56;5006931;28;20117;-41
2023/01/09 08:58:15;;;;;;;14.02;1.70;;;;;;;3.51;94.46;99176.28;5007262;28;20050;-44
2023/01/09 09:00:42;;;;;;;8.70;1.63;;;;;;;3.53;94.44;99195.88;5007270;28;20464;-41
2023/01/09 09:03:10;;;;;;;8.18;1.73;;;;;;;3.55;94.25;99187.31;5006901;28;20089;-46
2023/01/09 09:05:38;;;;;;;11.15;2.13;;;;;;;3.56;94.12;99188.94;5007130;28;20049;-41
2023/01/09 09:08:05;;;;;;;11.27;2.15;;;;;;;3.56;94.21;99206.16;4994662;28;20120;-41
2023/01/09 09:10:32;;;;;;;9.98;2.28;;;;;;;3.57;93.88;99201.50;5004706;28;20495;-41
2023/01/09 09:13:00;;;;;;;14.38;2.25;;;;;;;3.57;94.03;99207.75;5006757;28;20046;-46
2023/01/09 09:15:27;;;;;;;6.00;1.80;;;;;;;3.56;94.29;99205.34;5006789;28;20105;-43
2023/01/09 09:18:02;;;;;;;14.35;2.42;;;;;;;3.55;93.86;99220.97;5007038;28;20156;-41
2023/01/09 09:20:32;;;;;;;9.57;1.80;;;;;;;3.54;94.11;99213.09;5007071;28;20129;-41
2023/01/09 09:23:01;;;;;;;9.50;1.75;;;;;;;3.56;93.79;99216.31;5007388;28;20082;-45
2023/01/09 09:25:28;;;;;;;7.25;1.67;;;;;;;3.57;94.17;99223.38;5006830;28;20129;-41
2023/01/09 09:27:55;;;;;;;10.18;1.88;;;;;;;3.57;93.59;99223.38;5005719;28;20403;-41
2023/01/09 09:30:23;;;;;;;12.13;2.13;;;;;;;3.58;93.78;99228.50;5003824;28;20135;-42
2023/01/09 09:32:50;;;;;;;10.75;2.70;;;;;;;3.60;93.78;99223.50;5007085;28;20061;-41
2023/01/09 09:35:17;;;;;;;18.85;4.40;;;;;;;3.64;94.00;99223.63;5004333;28;20045;-41
2023/01/09 09:37:55;;;;;;;12.10;2.17;;;;;;;3.64;93.42;99226.38;5006937;28;20134;-41
2023/01/09 09:40:44;;;;;;;10.77;2.60;;;;;;;3.67;93.79;99231.97;5006816;28;20056;-41
2023/01/09 09:46:41;;;;;;;5.90;1.85;;;;;;;3.66;93.12;99238.56;5007020;28;20128;-41
2023/01/09 09:49:17;;;;;;;7.68;2.15;;;;;;;3.67;93.38;99240.19;5006776;28;20057;-42
2023/01/09 09:51:49;;;;;;;12.25;1.95;;;;;;;3.67;93.19;99239.38;5006560;28;20053;-41
2023/01/09 09:54:30;;;;;;;11.60;5.55;;;;;;;3.67;93.29;99251.13;5007056;28;20050;-41
2023/01/09 09:56:59;;;;;;;15.00;3.45;;;;;;;3.70;92.97;99271.56;5007259;28;20046;-41
2023/01/09 09:59:31;;;;;;;8.10;2.42;;;;;;;3.73;92.76;99272.81;5006643;28;20116;-42
2023/01/09 10:02:25;;;;;;;15.35;2.47;;;;;;;3.78;92.96;99281.63;5006637;28;20058;-41
2023/01/09 10:05:11;;;;;;;8.77;3.08;;;;;;;3.80;92.66;99287.56;4994339;28;20077;-42
2023/01/09 10:07:45;;;;;;;11.85;1.98;;;;;;;3.85;92.84;99292.81;5006774;28;20124;-42
2023/01/09 10:10:17;;;;;;;9.90;2.22;;;;;;;3.89;92.63;99312.91;5007478;28;20057;-41
2023/01/09 10:12:52;;;;;;;8.95;2.50;;;;;;;3.92;92.39;99323.19;5007308;28;20081;-41
2023/01/09 10:15:39;;;;;;;10.57;1.88;;;;;;;3.96;92.28;99321.41;5007130;28;20068;-41
2023/01/09 10:18:24;;;;;;;12.55;2.00;;;;;;;3.98;92.57;99319.13;5006671;28;20060;-42
2023/01/09 10:20:54;;;;;;;9.52;1.45;;;;;;;4.02;92.58;99322.81;5006815;28;20054;-42
2023/01/09 10:23:46;;;;;;;13.70;2.33;;;;;;;4.06;92.42;99323.72;5006842;28;20046;-41
2023/01/09 10:26:20;;;;;;;12.20;1.88;;;;;;;4.11;92.36;99328.97;5000040;28;20697;-42
2023/01/09 10:28:55;;;;;;;17.77;2.67;;;;;;;4.15;92.33;99340.06;4998226;28;20049;-42
2023/01/09 10:31:46;;;;;;;8.88;2.05;;;;;;;4.19;91.93;99341.78;5010164;28;20045;-42
2023/01/09 10:34:39;;;;;;;11.43;1.80;;;;;;;4.22;92.18;99348.53;5001900;28;20453;-42
2023/01/09 10:37:16;;;;;;;8.50;1.67;;;;;;;4.25;91.54;99354.16;5009886;28;20050;-41
2023/01/09 10:40:15;;;;;;;13.95;2.58;;;;;;;4.26;91.84;99350.25;5008381;28;20038;-42
2023/01/09 10:42:58;;;;;;;10.20;1.27;;;;;;;4.31;91.62;99369.22;5009719;28;20073;-48
2023/01/09 10:45:35;;;;;;;6.82;1.80;;;;;;;4.34;91.65;99365.03;5009843;28;20054;-43
2023/01/09 10:48:18;;;;;;;12.63;1.90;;;;;;;4.41;91.81;99378.16;5009838;28;20042;-42
2023/01/09 10:50:46;;;;;;;5.72;1.42;;;;;;;4.52;91.78;99379.34;5009805;28;20296;-47
2023/01/09 10:53:25;;;;;;;11.18;2.22;;;;;;;4.62;91.37;99367.94;5009077;28;20050;-42
2023/01/09 10:56:03;;;;;;;12.88;1.48;;;;;;;4.67;91.38;99381.44;5009356;28;20046;-42
2023/01/09 10:58:30;;;;;;;11.07;2.00;;;;;;;4.68;90.82;99369.34;5009523;28;20495;-42
2023/01/09 11:01:00;;;;;;;13.23;2.15;;;;;;;4.67;90.50;99360.31;5009459;28;20049;-48
2023/01/09 11:03:28;;;;;;;14.57;3.55;;;;;;;4.65;90.58;99372.75;5009162;28;20466;-42
2023/01/09 11:05:57;;;;;;;4.55;1.17;;;;;;;4.64;90.78;99371.16;5009326;28;20077;-42
2023/01/09 11:08:39;;;;;;;6.35;1.88;;;;;;;4.64;90.49;99371.16;5009275;28;20050;-42
2023/01/09 11:11:05;;;;;;;10.35;1.92;;;;;;;4.63;90.64;99386.78;5008908;28;20455;-43
2023/01/09 11:13:35;;;;;;;14.98;2.90;;;;;;;4.64;90.71;99377.44;5009136;28;20046;-42
2023/01/09 11:16:22;;;;;;;6.60;1.40;;;;;;;4.66;90.94;99377.88;5007402;28;20052;-43
2023/01/09 11:18:58;;;;;;;6.22;1.45;;;;;;;4.69;90.59;99373.66;5009097;28;20264;-42
2023/01/09 11:21:36;;;;;;;5.57;1.40;;;;;;;4.70;90.78;99391.72;5009166;28;20050;-45
2023/01/09 11:24:20;;;;;;;4.85;1.60;;;;;;;4.74;90.37;99392.63;5008889;28;20046;-45
2023/01/09 11:26:52;;;;;;;10.60;1.50;;;;;;;4.82;90.47;99405.44;5008312;28;20123;-43
2023/01/09 11:29:23;;;;;;;5.78;1.50;;;;;;;4.83;90.51;99409.81;4997527;28;20089;-43
2023/01/09 11:31:53;;;;;;;2.28;1.30;;;;;;;4.87;90.08;99408.00;5009231;28;20053;-42
2023/01/09 11:34:23;;;;;;;4.20;1.10;;;;;;;4.89;89.91;99411.19;5008721;28;20092;-43
2023/01/09 11:36:52;;;;;;;6.95;0.85;;;;;;;4.92;90.12;99410.53;5008588;28;20069;-47
2023/01/09 11:39:27;;;;;;;6.80;1.67;;;;;;;4.95;89.71;99423.53;5008985;28;20045;-48
2023/01/09 11:42:00;;;;;;;15.32;1.90;;;;;;;4.98;89.85;99420.09;5008466;28;20108;-43
2023/01/09 11:44:29;;;;;;;9.25;1.58;;;;;;;5.01;89.84;99418.63;5008336;28;20057;-49
2023/01/09 11:46:56;;;;;;;9.35;1.95;;;;;;;5.03;89.55;99406.16;5008232;28;20060;-43
2023/01/09 11:49:30;;;;;;;7.35;2.50;;;;;;;5.05;89.26;99425.84;5008675;28;20385;-43
2023/01/09 11:52:21;;;;;;;8.73;2.20;;;;;;;5.08;89.16;99425.19;5008431;28;20100;-42
2023/01/09 11:55:05;;;;;;;10.27;2.55;;;;;;;5.09;89.13;99443.22;5008024;28;20411;-44
2023/01/09 11:57:33;;;;;;;9.98;2.97;;;;;;;5.13;89.02;99415.91;5008373;28;20123;-42
2023/01/09 12:00:28;;;;;;;6.30;1.70;;;;;;;5.14;89.22;99418.31;5008247;28;20092;-43
2023/01/09 12:03:36;;;;;;;10.02;2.35;;;;;;;5.18;88.85;99413.75;5008057;28;20430;-43
2023/01/09 12:06:42;;;;;;;8.18;1.98;;;;;;;5.22;89.01;99431.13;4968532;28;20162;-44